Time;durP1;ratioP1;P1;durP2;ratioP2;P2;SDS_P1;SDS_P2;PMS_P1;PMS_P2;Temp;Humidity;BMP_temperature;BMP_pressure;BME280_temperature;BME280_humidity;BME280_pressure;Samples;Min_cycle;Max_cycle;Signal;HPM_P1;HPM_P2
2024/01/28 00:01:55;;;;;;;8.30;2.80;;;2.50;99.90;;;;;;4938914;29;20058;-64
2024/01/28 00:04:21;;;;;;;11.70;3.17;;;2.40;99.90;;;;;;4956338;29;20038;-64
2024/01/28 00:06:47;;;;;;;12.70;2.72;;;2.30;99.90;;;;;;4938880;29;20034;-64
2024/01/28 00:09:12;;;;;;;11.75;2.90;;;2.30;99.90;;;;;;4938770;29;20024;-64
2024/01/28 00:11:39;;;;;;;10.10;3.35;;;2.40;99.90;;;;;;4940398;29;20034;-65
2024/01/28 00:14:05;;;;;;;8.05;2.67;;;2.50;99.90;;;;;;4959537;29;20446;-65
2024/01/28 00:16:31;;;;;;;8.73;3.05;;;2.50;99.90;;;;;;4958947;29;20102;-67
2024/01/28 00:18:59;;;;;;;6.20;2.33;;;2.50;99.90;;;;;;4940232;29;20027;-65
2024/01/28 00:21:25;;;;;;;6.80;2.10;;;2.60;99.90;;;;;;4956193;29;20071;-65
2024/01/28 00:23:51;;;;;;;12.73;2.88;;;2.50;99.90;;;;;;4956460;29;20035;-65
2024/01/28 00:26:17;;;;;;;5.43;2.38;;;2.50;99.90;;;;;;4938957;29;20091;-65
2024/01/28 00:28:42;;;;;;;17.05;3.00;;;2.50;99.90;;;;;;4956833;29;20058;-65
2024/01/28 00:31:10;;;;;;;11.02;2.90;;;2.50;99.90;;;;;;4939650;29;20383;-65
2024/01/28 00:33:35;;;;;;;8.00;2.42;;;2.50;99.90;;;;;;4955841;29;20081;-65
2024/01/28 00:36:01;;;;;;;11.82;2.60;;;2.40;99.90;;;;;;4938603;29;20448;-65
2024/01/28 00:38:31;;;;;;;13.82;3.00;;;2.40;99.90;;;;;;4956037;29;20456;-65
2024/01/28 00:40:57;;;;;;;7.80;2.20;;;2.40;99.90;;;;;;4955788;29;20028;-65
2024/01/28 00:43:23;;;;;;;12.52;2.65;;;2.40;99.90;;;;;;4938395;29;20035;-64
2024/01/28 00:45:49;;;;;;;8.93;3.05;;;2.50;99.90;;;;;;4938362;29;20034;-65
2024/01/28 00:48:14;;;;;;;16.98;2.92;;;2.50;99.90;;;;;;4955396;29;20046;-65
2024/01/28 00:50:40;;;;;;;8.98;3.15;;;2.50;99.90;;;;;;4938506;29;20023;-65
2024/01/28 00:53:05;;;;;;;11.48;2.88;;;2.50;99.90;;;;;;4938483;29;20467;-64
2024/01/28 00:55:31;;;;;;;11.43;3.28;;;2.50;99.90;;;;;;4955399;29;20031;-65
2024/01/28 00:57:58;;;;;;;7.47;2.58;;;2.50;99.90;;;;;;4938462;29;20035;-64
2024/01/28 01:00:25;;;;;;;5.95;2.25;;;2.60;99.90;;;;;;4955640;29;20376;-64
2024/01/28 01:02:52;;;;;;;9.00;2.40;;;2.40;99.90;;;;;;4956056;29;20063;-65
2024/01/28 01:05:18;;;;;;;17.15;2.67;;;2.40;99.90;;;;;;4958622;28;20027;-65
2024/01/28 01:07:44;;;;;;;10.25;2.45;;;2.40;99.90;;;;;;4961320;29;20356;-67
2024/01/28 01:10:10;;;;;;;5.85;2.20;;;2.40;99.90;;;;;;4943115;29;20049;-65
2024/01/28 01:12:35;;;;;;;10.70;2.55;;;2.30;99.90;;;;;;4959981;29;20113;-65
2024/01/28 01:15:01;;;;;;;12.23;2.70;;;2.30;99.90;;;;;;4942222;29;20027;-65
2024/01/28 01:17:28;;;;;;;24.70;4.03;;;2.30;99.90;;;;;;4959667;29;20066;-64
2024/01/28 01:19:53;;;;;;;12.57;3.55;;;2.20;99.90;;;;;;4959197;29;20085;-65
2024/01/28 01:22:19;;;;;;;7.82;2.88;;;2.10;99.90;;;;;;4942104;29;20134;-65
2024/01/28 01:24:44;;;;;;;11.80;3.33;;;2.00;99.90;;;;;;4941867;29;20027;-64
2024/01/28 01:27:10;;;;;;;8.75;2.83;;;1.90;99.90;;;;;;4958853;28;20053;-65
2024/01/28 01:29:36;;;;;;;10.77;2.83;;;1.90;99.90;;;;;;4959009;29;20028;-64
2024/01/28 01:32:02;;;;;;;7.50;2.50;;;1.80;99.90;;;;;;4941767;29;20042;-65
2024/01/28 01:34:27;;;;;;;12.63;2.30;;;1.70;99.90;;;;;;4958950;29;20036;-65
2024/01/28 01:36:53;;;;;;;8.43;2.25;;;1.70;99.90;;;;;;4959206;29;20038;-64
2024/01/28 01:39:19;;;;;;;6.88;2.40;;;1.70;99.90;;;;;;4958781;29;20034;-64
2024/01/28 01:41:44;;;;;;;10.90;3.13;;;1.70;99.90;;;;;;4959090;29;20114;-65
2024/01/28 01:44:11;;;;;;;5.43;2.92;;;1.60;99.90;;;;;;4958528;29;20086;-65
2024/01/28 01:46:38;;;;;;;5.38;2.70;;;1.40;99.90;;;;;;4958431;29;20480;-65
2024/01/28 01:49:05;;;;;;;12.57;3.13;;;1.20;99.90;;;;;;4958620;29;20042;-64
2024/01/28 01:51:31;;;;;;;11.90;3.08;;;1.10;99.90;;;;;;4958616;29;20102;-65
2024/01/28 01:53:57;;;;;;;4.50;2.85;;;1.00;99.90;;;;;;4958881;29;20074;-64
2024/01/28 01:56:24;;;;;;;9.55;2.63;;;0.90;99.90;;;;;;4941612;29;20031;-65
2024/01/28 01:58:53;;;;;;;13.20;2.70;;;0.70;99.90;;;;;;4958315;29;20372;-64
2024/01/28 02:01:19;;;;;;;7.88;2.45;;;0.70;99.90;;;;;;4958468;29;20028;-64
2024/01/28 02:03:45;;;;;;;8.55;2.53;;;0.60;99.90;;;;;;4958451;29;20391;-64
2024/01/28 02:06:14;;;;;;;12.15;2.65;;;0.80;99.90;;;;;;4941257;29;20027;-64
2024/01/28 02:08:40;;;;;;;;;;;0.60;99.90;;;;;;4941492;29;20027;-65
2024/01/28 02:11:06;;;;;;;7.13;3.08;;;0.40;99.90;;;;;;4958297;29;20374;-64
2024/01/28 02:13:32;;;;;;;8.02;2.58;;;0.30;99.90;;;;;;4941036;29;20086;-65
2024/01/28 02:15:58;;;;;;;10.82;2.75;;;0.30;99.90;;;;;;4958044;28;20027;-65
2024/01/28 02:18:24;;;;;;;9.38;3.00;;;0.10;99.90;;;;;;4958482;29;20031;-64
2024/01/28 02:20:50;;;;;;;7.32;2.10;;;0.10;99.90;;;;;;4940878;29;20352;-64
2024/01/28 02:23:22;;;;;;;13.30;2.90;;;0.20;99.90;;;;;;4957649;29;20031;-65
2024/01/28 02:25:50;;;;;;;8.77;2.50;;;0.00;99.90;;;;;;4940840;29;20461;-65
2024/01/28 02:28:16;;;;;;;7.00;2.88;;;-0.10;99.90;;;;;;4958033;29;20027;-64
2024/01/28 02:30:42;;;;;;;9.13;2.65;;;-0.30;99.90;;;;;;4940746;29;20387;-65
2024/01/28 02:33:08;;;;;;;10.50;3.30;;;-0.20;99.90;;;;;;4957590;29;20035;-65
2024/01/28 02:35:34;;;;;;;12.18;2.95;;;-0.30;99.90;;;;;;4957818;29;20110;-64
2024/01/28 02:38:00;;;;;;;10.05;3.35;;;-0.30;99.90;;;;;;4957526;29;20081;-64
2024/01/28 02:40:25;;;;;;;11.93;3.00;;;-0.40;99.90;;;;;;4940432;29;20118;-64
2024/01/28 02:42:51;;;;;;;9.93;2.95;;;-0.50;99.90;;;;;;4940428;29;20122;-64
2024/01/28 02:45:18;;;;;;;7.95;2.55;;;-0.80;99.90;;;;;;4957928;29;20039;-64
2024/01/28 02:47:43;;;;;;;11.13;3.70;;;-0.60;99.90;;;;;;4957596;29;20039;-64
2024/01/28 02:50:09;;;;;;;8.90;2.67;;;-0.60;99.90;;;;;;4957362;29;20058;-65
2024/01/28 02:52:35;;;;;;;8.43;3.05;;;-0.60;99.90;;;;;;4958303;29;20483;-64
2024/01/28 02:55:00;;;;;;;9.68;3.25;;;-0.80;99.90;;;;;;4957679;29;20031;-65
2024/01/28 02:57:26;;;;;;;7.68;2.50;;;-0.70;99.90;;;;;;4957374;29;20031;-64
2024/01/28 02:59:52;;;;;;;7.68;2.95;;;-0.80;99.90;;;;;;4957495;29;20031;-64
2024/01/28 03:02:18;;;;;;;7.35;3.58;;;-0.90;99.90;;;;;;4957279;29;20042;-64
2024/01/28 03:04:44;;;;;;;10.65;3.28;;;-0.90;99.90;;;;;;4957311;29;20488;-64
2024/01/28 03:07:10;;;;;;;14.05;2.88;;;-0.90;99.90;;;;;;4957249;29;20028;-64
2024/01/28 03:09:35;;;;;;;7.93;3.25;;;-0.90;99.90;;;;;;4957259;29;20055;-65
2024/01/28 03:12:01;;;;;;;12.15;3.47;;;-1.00;99.90;;;;;;4957372;29;20031;-65
2024/01/28 03:14:27;;;;;;;13.02;4.10;;;-0.90;99.90;;;;;;4957097;29;20039;-64
2024/01/28 03:16:53;;;;;;;7.78;3.20;;;-0.90;99.90;;;;;;4940010;29;20028;-64
2024/01/28 03:19:18;;;;;;;11.85;3.40;;;-0.90;99.90;;;;;;4939817;29;20374;-65
2024/01/28 03:21:44;;;;;;;10.20;3.25;;;-0.60;99.90;;;;;;4956974;29;20023;-64
2024/01/28 03:24:10;;;;;;;12.15;3.25;;;-0.90;99.90;;;;;;4939606;29;20039;-64
2024/01/28 03:26:35;;;;;;;10.15;3.20;;;-0.80;99.90;;;;;;4956784;29;20051;-64
2024/01/28 03:29:02;;;;;;;14.43;3.17;;;-0.80;99.90;;;;;;4956302;28;20019;-64
2024/01/28 03:31:28;;;;;;;15.77;3.83;;;-0.80;99.90;;;;;;4939474;29;20085;-64
2024/01/28 03:33:54;;;;;;;14.05;3.40;;;-0.90;99.90;;;;;;4956675;29;20035;-65
2024/01/28 03:36:20;;;;;;;12.35;3.40;;;-0.90;99.90;;;;;;4956879;29;20039;-64
2024/01/28 03:38:46;;;;;;;8.32;3.33;;;-0.70;99.90;;;;;;4939129;29;20028;-64
2024/01/28 03:41:15;;;;;;;8.02;3.17;;;-1.00;99.90;;;;;;4957406;29;20028;-65
2024/01/28 03:43:42;;;;;;;13.07;3.67;;;-1.10;99.90;;;;;;4941005;29;20035;-72
2024/01/28 03:46:09;;;;;;;9.30;2.90;;;-1.10;99.90;;;;;;4957760;29;20035;-64
2024/01/28 03:48:35;;;;;;;6.20;3.45;;;-1.10;99.90;;;;;;4957428;29;20031;-64
2024/01/28 03:51:01;;;;;;;13.48;3.53;;;-1.10;99.90;;;;;;4939365;29;20034;-65
2024/01/28 03:53:27;;;;;;;6.43;3.78;;;-1.20;99.90;;;;;;4939168;29;20035;-64
2024/01/28 03:55:53;;;;;;;11.27;3.83;;;-1.20;99.90;;;;;;4956164;29;20027;-64
2024/01/28 03:58:18;;;;;;;8.05;2.97;;;-1.60;99.90;;;;;;4939451;29;20379;-64
2024/01/28 04:00:44;;;;;;;9.32;3.15;;;-0.90;99.90;;;;;;4955996;29;20435;-64
2024/01/28 04:03:10;;;;;;;12.48;3.50;;;-1.30;99.90;;;;;;4938937;29;20479;-64
2024/01/28 04:05:36;;;;;;;10.55;3.53;;;-1.30;99.90;;;;;;4956260;29;20054;-64
2024/01/28 04:08:02;;;;;;;18.38;4.38;;;-1.30;99.90;;;;;;4938975;29;20027;-64
2024/01/28 04:10:27;;;;;;;11.45;3.53;;;-1.30;99.90;;;;;;4956152;29;20031;-64
2024/01/28 04:12:53;;;;;;;12.60;4.28;;;-1.20;99.90;;;;;;4939243;29;20047;-64
2024/01/28 04:15:19;;;;;;;12.52;4.63;;;-1.10;99.90;;;;;;4956104;29;20038;-64
2024/01/28 04:17:45;;;;;;;16.42;4.40;;;-0.60;99.90;;;;;;4938856;29;20062;-64
2024/01/28 04:20:11;;;;;;;13.70;4.28;;;-1.00;99.90;;;;;;4955971;29;20030;-64
2024/01/28 04:22:37;;;;;;;10.50;4.30;;;-0.90;99.90;;;;;;4938732;29;20043;-64
2024/01/28 04:25:03;;;;;;;13.55;3.42;;;-0.90;99.90;;;;;;4955602;29;20032;-65
2024/01/28 04:27:28;;;;;;;10.70;3.42;;;-0.90;99.90;;;;;;4938287;29;20090;-64
2024/01/28 04:29:54;;;;;;;8.60;4.15;;;-0.90;99.90;;;;;;4938661;29;20038;-64
2024/01/28 04:32:20;;;;;;;15.15;4.53;;;-0.90;99.90;;;;;;4956090;29;20031;-65
2024/01/28 04:34:45;;;;;;;13.43;4.00;;;-1.30;99.90;;;;;;4938575;29;20027;-64
2024/01/28 04:37:11;;;;;;;10.65;3.50;;;-0.80;99.90;;;;;;4938332;29;20023;-64
2024/01/28 04:39:37;;;;;;;12.18;4.53;;;-1.00;99.90;;;;;;4955800;28;20027;-64
2024/01/28 04:42:03;;;;;;;13.50;4.00;;;-1.00;99.90;;;;;;4956003;29;20082;-64
2024/01/28 04:44:29;;;;;;;8.23;3.28;;;-1.00;99.90;;;;;;4938668;29;20039;-64
2024/01/28 04:46:57;;;;;;;8.98;4.07;;;-1.10;99.90;;;;;;4938551;29;20031;-64
2024/01/28 04:49:23;;;;;;;14.10;3.40;;;-1.10;99.90;;;;;;4955718;29;20031;-64
2024/01/28 04:51:50;;;;;;;13.98;3.03;;;-1.10;99.90;;;;;;4955736;29;20106;-64
2024/01/28 04:54:16;;;;;;;9.70;2.92;;;-1.00;99.90;;;;;;4938525;29;20031;-64
2024/01/28 04:56:42;;;;;;;8.38;3.13;;;-1.00;99.90;;;;;;4955810;29;20027;-64
2024/01/28 04:59:08;;;;;;;8.05;3.55;;;-1.30;99.90;;;;;;4938382;29;20031;-64
2024/01/28 05:01:34;;;;;;;7.40;3.67;;;-1.30;99.90;;;;;;4938324;29;20079;-64
2024/01/28 05:04:03;;;;;;;12.07;3.72;;;-1.40;99.90;;;;;;4955503;29;20114;-64
2024/01/28 05:06:34;;;;;;;10.05;4.30;;;-1.30;99.90;;;;;;4955553;29;20118;-64
2024/01/28 05:09:03;;;;;;;10.13;3.75;;;-1.40;99.90;;;;;;4955562;29;20027;-64
2024/01/28 05:11:31;;;;;;;13.82;3.78;;;-1.40;99.90;;;;;;4938250;29;20055;-65
2024/01/28 05:13:57;;;;;;;12.20;3.72;;;-1.40;99.90;;;;;;4955551;29;20115;-64
2024/01/28 05:16:23;;;;;;;9.38;3.65;;;-1.50;99.90;;;;;;4938219;29;20042;-64
2024/01/28 05:18:50;;;;;;;9.05;3.38;;;-1.60;99.90;;;;;;4955437;29;20467;-64
2024/01/28 05:21:15;;;;;;;8.13;3.72;;;-1.40;99.90;;;;;;4938179;29;20523;-64
2024/01/28 05:23:41;;;;;;;12.70;4.43;;;-1.20;99.90;;;;;;4955355;29;20031;-64
2024/01/28 05:26:07;;;;;;;18.13;4.55;;;-1.40;99.90;;;;;;4955246;28;20050;-65
2024/01/28 05:28:32;;;;;;;10.50;4.10;;;-1.40;99.90;;;;;;4955301;29;20355;-64
2024/01/28 05:30:58;;;;;;;14.40;4.38;;;-1.30;99.90;;;;;;4955058;29;20031;-64
2024/01/28 05:33:24;;;;;;;11.80;3.78;;;-1.40;99.90;;;;;;4955260;29;20034;-64
2024/01/28 05:35:49;;;;;;;14.07;4.35;;;-1.30;99.90;;;;;;4955268;29;20120;-64
2024/01/28 05:38:15;;;;;;;20.45;4.55;;;-1.20;99.90;;;;;;4955219;29;20063;-64
2024/01/28 05:40:41;;;;;;;8.23;4.47;;;-1.30;99.90;;;;;;4955407;29;20034;-64
2024/01/28 05:43:07;;;;;;;14.05;3.67;;;-1.30;99.90;;;;;;4937863;29;20379;-64
2024/01/28 05:45:33;;;;;;;9.82;3.63;;;-1.20;99.90;;;;;;4955567;29;20027;-64
2024/01/28 05:48:01;;;;;;;8.45;4.38;;;-1.20;99.90;;;;;;4955395;29;20034;-64
2024/01/28 05:50:29;;;;;;;15.77;4.20;;;-1.20;99.90;;;;;;4955499;28;20114;-64
2024/01/28 05:52:54;;;;;;;18.25;4.03;;;-1.20;99.90;;;;;;4958885;29;20039;-64
2024/01/28 05:55:20;;;;;;;14.05;3.88;;;-1.30;99.90;;;;;;4958300;29;20493;-64
2024/01/28 05:57:46;;;;;;;10.60;3.88;;;-1.50;99.90;;;;;;4958586;29;20030;-64
2024/01/28 06:00:12;;;;;;;15.73;3.97;;;-1.30;99.90;;;;;;4958779;29;20039;-64
2024/01/28 06:02:38;;;;;;;14.05;4.53;;;-1.40;99.90;;;;;;4958486;29;20130;-64
2024/01/28 06:05:04;;;;;;;11.15;4.25;;;-1.50;99.90;;;;;;4958368;29;20028;-64
2024/01/28 06:07:30;;;;;;;7.05;3.20;;;-1.50;99.90;;;;;;4958662;29;20098;-64
2024/01/28 06:09:56;;;;;;;9.48;3.90;;;-1.50;99.90;;;;;;4958322;29;20023;-64
2024/01/28 06:12:22;;;;;;;7.75;3.60;;;-1.50;99.90;;;;;;4958028;29;20089;-64
2024/01/28 06:14:47;;;;;;;13.10;4.28;;;-1.60;99.90;;;;;;4957906;29;20035;-65
2024/01/28 06:17:15;;;;;;;18.50;4.65;;;-1.50;99.90;;;;;;4958174;29;20031;-64
2024/01/28 06:19:40;;;;;;;11.02;4.38;;;-0.30;99.90;;;;;;4958177;29;20027;-64
2024/01/28 06:22:06;;;;;;;13.55;5.15;;;-1.50;99.90;;;;;;4958522;29;20042;-64
2024/01/28 06:24:33;;;;;;;14.77;4.65;;;-1.50;99.90;;;;;;4957837;29;20035;-64
2024/01/28 06:26:58;;;;;;;14.93;5.22;;;0.30;99.90;;;;;;4958007;29;20098;-64
2024/01/28 06:29:24;;;;;;;13.77;5.43;;;-1.40;99.90;;;;;;4957921;29;20039;-64
2024/01/28 06:31:50;;;;;;;17.23;6.13;;;-1.40;99.90;;;;;;4957890;29;20028;-64
2024/01/28 06:34:16;;;;;;;20.17;5.13;;;-1.30;99.90;;;;;;4940815;29;20027;-64
2024/01/28 06:36:42;;;;;;;15.98;5.10;;;-0.60;99.90;;;;;;4940676;29;20031;-64
2024/01/28 06:39:08;;;;;;;13.18;5.88;;;-1.10;99.90;;;;;;4957763;29;20053;-64
2024/01/28 06:41:34;;;;;;;18.83;6.57;;;-1.30;99.90;;;;;;4957830;29;20111;-64
2024/01/28 06:44:02;;;;;;;13.70;6.93;;;-1.30;99.90;;;;;;4957419;29;20118;-64
2024/01/28 06:46:28;;;;;;;20.10;7.55;;;-0.90;99.90;;;;;;4957808;29;20031;-66
2024/01/28 06:48:54;;;;;;;18.70;7.47;;;-1.20;99.90;;;;;;4957878;29;20035;-64
2024/01/28 06:51:19;;;;;;;22.67;6.95;;;-1.00;99.90;;;;;;4940064;29;20035;-64
2024/01/28 06:53:45;;;;;;;12.30;7.03;;;-1.20;99.90;;;;;;4957578;29;20039;-64
2024/01/28 06:56:11;;;;;;;16.83;7.03;;;-1.20;99.90;;;;;;4940291;29;20082;-64
2024/01/28 06:58:37;;;;;;;21.67;7.18;;;-1.00;99.90;;;;;;4940714;29;20035;-70
2024/01/28 07:01:03;;;;;;;22.80;7.20;;;-0.80;99.90;;;;;;4958282;29;20028;-65
2024/01/28 07:03:29;;;;;;;19.05;6.65;;;-1.10;99.90;;;;;;4957339;28;20043;-64
2024/01/28 07:05:55;;;;;;;21.92;8.20;;;-1.10;99.90;;;;;;4958503;29;20027;-64
2024/01/28 07:08:20;;;;;;;22.08;7.78;;;-1.10;99.90;;;;;;4958072;29;20035;-64
2024/01/28 07:10:46;;;;;;;15.20;7.68;;;-1.10;99.90;;;;;;4958446;29;20035;-64
2024/01/28 07:13:12;;;;;;;17.70;6.65;;;-1.10;99.90;;;;;;4959383;29;20031;-65
2024/01/28 07:15:38;;;;;;;21.35;7.15;;;-0.90;99.90;;;;;;4942369;29;20469;-65
2024/01/28 07:18:04;;;;;;;17.30;8.02;;;-1.10;99.90;;;;;;4958911;29;20058;-64
2024/01/28 07:20:30;;;;;;;24.45;7.05;;;-1.00;99.90;;;;;;4957274;29;20031;-64
2024/01/28 07:22:55;;;;;;;18.17;6.57;;;-0.70;99.90;;;;;;4940149;29;20066;-64
2024/01/28 07:25:21;;;;;;;21.35;6.80;;;-0.80;99.90;;;;;;4957042;29;20027;-67
2024/01/28 07:27:46;;;;;;;16.67;6.68;;;-0.80;99.90;;;;;;4957694;28;20047;-65
2024/01/28 07:30:12;;;;;;;18.80;7.80;;;-0.60;99.90;;;;;;4957599;29;20478;-65
2024/01/28 07:32:38;;;;;;;18.08;7.00;;;-0.40;99.90;;;;;;4957007;29;20031;-64
2024/01/28 07:35:05;;;;;;;11.40;5.90;;;0.00;99.90;;;;;;4956474;29;20430;-65
2024/01/28 07:37:30;;;;;;;19.20;7.22;;;0.10;99.90;;;;;;4956493;29;20028;-65
2024/01/28 07:39:56;;;;;;;19.10;7.22;;;0.30;99.90;;;;;;4956717;29;20034;-64
2024/01/28 07:42:21;;;;;;;16.20;7.38;;;0.50;99.90;;;;;;4957078;29;20059;-65
2024/01/28 07:44:47;;;;;;;22.08;6.55;;;0.70;99.90;;;;;;4956782;29;20031;-65
2024/01/28 07:47:13;;;;;;;16.25;5.82;;;0.80;99.90;;;;;;4939655;29;20035;-64
2024/01/28 07:49:38;;;;;;;14.20;5.43;;;0.90;99.90;;;;;;4956577;29;20023;-65
2024/01/28 07:52:04;;;;;;;16.02;5.40;;;1.00;99.90;;;;;;4939414;29;20023;-64
2024/01/28 07:54:30;;;;;;;14.07;5.47;;;0.90;99.90;;;;;;4939366;29;20398;-64
2024/01/28 07:56:57;;;;;;;17.75;5.55;;;1.10;99.90;;;;;;4939235;29;20514;-64
2024/01/28 07:59:23;;;;;;;12.30;5.50;;;1.40;99.90;;;;;;4939390;29;20024;-64
2024/01/28 08:01:49;;;;;;;16.42;5.97;;;1.60;99.90;;;;;;4956310;29;20023;-64
2024/01/28 08:04:14;;;;;;;16.33;5.53;;;1.80;99.90;;;;;;4956230;29;20391;-64
2024/01/28 08:06:40;;;;;;;14.40;5.72;;;2.10;99.90;;;;;;4956404;29;20027;-65
2024/01/28 08:09:05;;;;;;;9.52;4.68;;;2.60;99.90;;;;;;4972239;28;20039;-64
2024/01/28 08:11:31;;;;;;;17.67;5.72;;;2.90;99.90;;;;;;4975274;28;20471;-64
2024/01/28 08:13:57;;;;;;;13.20;5.30;;;3.30;99.90;;;;;;4975193;28;20030;-65
2024/01/28 08:16:23;;;;;;;11.50;5.22;;;3.80;99.90;;;;;;4975442;28;20031;-65
2024/01/28 08:18:48;;;;;;;13.70;5.70;;;4.30;99.90;;;;;;4975281;28;20054;-67
2024/01/28 08:21:14;;;;;;;11.85;5.20;;;4.50;99.90;;;;;;4958388;28;20050;-67
2024/01/28 08:23:40;;;;;;;8.40;4.15;;;5.00;99.90;;;;;;4958575;28;20034;-67
2024/01/28 08:26:05;;;;;;;10.55;3.72;;;5.40;99.90;;;;;;4957719;28;20133;-67
2024/01/28 08:28:31;;;;;;;11.70;4.82;;;5.60;99.90;;;;;;4975185;28;20027;-68
2024/01/28 08:30:57;;;;;;;13.88;3.53;;;6.10;99.90;;;;;;4975477;28;20031;-62
2024/01/28 08:33:22;;;;;;;8.10;2.97;;;6.30;99.90;;;;;;4975284;28;20035;-68
2024/01/28 08:35:48;;;;;;;12.63;4.03;;;6.30;99.90;;;;;;4957919;28;20081;-68
2024/01/28 08:38:14;;;;;;;9.45;3.80;;;6.70;99.90;;;;;;4958520;28;20375;-69
2024/01/28 08:40:40;;;;;;;8.52;3.15;;;7.20;99.90;;;;;;4975329;28;20062;-69
2024/01/28 08:43:07;;;;;;;9.35;3.60;;;7.50;99.90;;;;;;4975177;28;20118;-69
2024/01/28 08:45:33;;;;;;;8.38;3.58;;;8.10;99.20;;;;;;4974921;28;20119;-68
2024/01/28 08:47:59;;;;;;;8.07;3.88;;;8.40;97.50;;;;;;4974811;28;20058;-68
2024/01/28 08:50:25;;;;;;;11.70;3.50;;;8.80;95.20;;;;;;4974749;28;20054;-68
2024/01/28 08:52:54;;;;;;;8.18;3.90;;;8.90;94.50;;;;;;4974920;28;20049;-68
2024/01/28 08:55:19;;;;;;;15.20;3.67;;;9.30;93.20;;;;;;4974073;28;20023;-67
2024/01/28 08:57:45;;;;;;;10.20;3.30;;;9.40;92.50;;;;;;4973595;28;20463;-66
2024/01/28 09:00:11;;;;;;;8.20;3.50;;;9.90;91.10;;;;;;4974466;28;20038;-68
2024/01/28 09:02:39;;;;;;;11.02;3.40;;;10.40;90.10;;;;;;4957637;28;20032;-67
2024/01/28 09:05:05;;;;;;;6.25;2.95;;;10.70;85.80;;;;;;4965800;28;20364;-66
2024/01/28 09:07:31;;;;;;;7.90;3.00;;;10.80;85.90;;;;;;4974803;28;20033;-67
2024/01/28 09:09:57;;;;;;;8.18;3.00;;;11.30;82.90;;;;;;4975015;28;20027;-67
2024/01/28 09:12:24;;;;;;;8.60;3.25;;;11.70;80.50;;;;;;4975065;28;20459;-68
2024/01/28 09:14:49;;;;;;;10.20;3.40;;;12.10;79.10;;;;;;4957449;28;20027;-67
2024/01/28 09:17:15;;;;;;;8.75;2.75;;;12.40;76.80;;;;;;4975111;28;20038;-67
2024/01/28 09:19:41;;;;;;;8.73;3.10;;;12.50;74.90;;;;;;4974673;28;20065;-66
2024/01/28 09:22:06;;;;;;;7.78;3.97;;;12.70;72.60;;;;;;4957329;28;20027;-67
2024/01/28 09:24:32;;;;;;;9.43;3.20;;;12.90;72.70;;;;;;4974578;28;20382;-67
2024/01/28 09:26:58;;;;;;;6.40;2.75;;;13.10;70.80;;;;;;4977089;28;20061;-67
2024/01/28 09:29:26;;;;;;;7.60;3.13;;;13.00;71.30;;;;;;4978037;28;20483;-67
2024/01/28 09:31:52;;;;;;;9.43;3.35;;;13.20;70.60;;;;;;4978248;28;20438;-66
2024/01/28 09:34:17;;;;;;;6.15;2.75;;;13.40;69.30;;;;;;4978190;28;20039;-66
2024/01/28 09:36:44;;;;;;;10.02;3.05;;;13.40;68.70;;;;;;4978151;28;20031;-66
2024/01/28 09:39:11;;;;;;;8.70;3.00;;;13.90;67.50;;;;;;4978141;28;20422;-67
2024/01/28 09:41:48;;;;;;;9.05;3.00;;;14.40;66.00;;;;;;4978288;28;20085;-66
2024/01/28 09:44:14;;;;;;;6.43;2.97;;;14.60;65.10;;;;;;4977873;28;20480;-67
2024/01/28 09:46:41;;;;;;;8.23;2.65;;;14.80;64.10;;;;;;4960651;28;20027;-67
2024/01/28 09:49:11;;;;;;;6.75;2.88;;;15.20;62.90;;;;;;4976683;28;20029;-66
2024/01/28 09:51:38;;;;;;;7.63;3.80;;;15.40;60.70;;;;;;4977914;28;20023;-67
2024/01/28 09:54:03;;;;;;;8.18;3.15;;;15.50;59.80;;;;;;4977883;28;20022;-66
2024/01/28 09:56:31;;;;;;;15.30;4.75;;;15.50;58.80;;;;;;4977782;28;20534;-66
2024/01/28 09:58:57;;;;;;;13.00;5.68;;;15.50;59.10;;;;;;4977455;28;20106;-67
2024/01/28 10:01:24;;;;;;;9.95;3.63;;;15.90;58.70;;;;;;4977917;28;20110;-66
2024/01/28 10:03:51;;;;;;;9.73;3.53;;;15.90;57.60;;;;;;4977785;28;20046;-66
2024/01/28 10:06:16;;;;;;;7.57;2.40;;;15.80;56.90;;;;;;4977548;28;20035;-66
2024/01/28 10:08:42;;;;;;;9.57;2.65;;;15.80;57.50;;;;;;4977913;28;20082;-68
2024/01/28 10:11:09;;;;;;;8.93;2.53;;;15.60;56.90;;;;;;4977841;28;20035;-66
2024/01/28 10:13:35;;;;;;;7.00;2.28;;;15.30;59.00;;;;;;4976139;28;20058;-66
2024/01/28 10:16:02;;;;;;;9.80;2.90;;;15.00;58.80;;;;;;4977465;28;20027;-66
2024/01/28 10:18:28;;;;;;;12.68;4.47;;;15.10;58.00;;;;;;4977122;28;20390;-67
2024/01/28 10:20:54;;;;;;;10.15;3.00;;;14.70;58.10;;;;;;4976969;28;20031;-66
2024/01/28 10:23:19;;;;;;;8.48;2.45;;;14.30;59.70;;;;;;4974852;28;20031;-68
2024/01/28 10:25:45;;;;;;;8.57;3.13;;;14.50;60.10;;;;;;4976695;28;20378;-68
2024/01/28 10:28:11;;;;;;;9.07;3.25;;;14.90;59.10;;;;;;4977481;28;20034;-68
2024/01/28 10:30:37;;;;;;;7.97;2.45;;;14.80;58.30;;;;;;4977057;28;20110;-66
2024/01/28 10:33:03;;;;;;;6.60;2.10;;;15.20;57.90;;;;;;4977060;28;20031;-66
2024/01/28 10:35:28;;;;;;;5.53;1.73;;;15.50;57.40;;;;;;4959603;28;20038;-67
2024/01/28 10:37:56;;;;;;;7.50;2.35;;;15.80;56.10;;;;;;4976906;28;20034;-67
2024/01/28 10:40:29;;;;;;;9.75;2.20;;;15.50;56.20;;;;;;4976278;28;20391;-67
2024/01/28 10:42:56;;;;;;;8.88;2.78;;;15.10;57.40;;;;;;4957365;28;20118;-67
2024/01/28 10:45:23;;;;;;;9.98;2.38;;;14.60;57.60;;;;;;4956102;29;20027;-67
2024/01/28 10:47:54;;;;;;;5.35;1.80;;;13.90;58.60;;;;;;4957424;29;20135;-67
2024/01/28 10:50:24;;;;;;;6.20;1.90;;;13.10;60.10;;;;;;4957477;29;20023;-67
2024/01/28 10:52:51;;;;;;;7.13;1.67;;;12.80;61.40;;;;;;4957104;29;20059;-67
2024/01/28 10:55:18;;;;;;;7.30;2.10;;;13.00;61.30;;;;;;4956924;29;20039;-66
2024/01/28 10:57:45;;;;;;;7.25;1.77;;;13.30;61.50;;;;;;4957174;29;20435;-67
2024/01/28 11:00:13;;;;;;;8.23;1.55;;;13.50;60.20;;;;;;4957243;29;20023;-66
2024/01/28 11:02:42;;;;;;;5.13;1.70;;;13.80;59.90;;;;;;4971735;28;20043;-66
2024/01/28 11:05:09;;;;;;;6.47;1.45;;;14.10;60.10;;;;;;4956975;29;20042;-67
2024/01/28 11:07:35;;;;;;;6.82;1.35;;;14.70;59.20;;;;;;4957030;29;20037;-66
2024/01/28 11:10:04;;;;;;;9.00;1.65;;;15.10;57.10;;;;;;4956513;28;20391;-68
2024/01/28 11:12:29;;;;;;;8.00;1.37;;;15.70;56.20;;;;;;4976232;28;20022;-67
2024/01/28 11:14:59;;;;;;;3.85;1.27;;;16.30;55.80;;;;;;4958805;28;20289;-67
2024/01/28 11:17:32;;;;;;;7.75;1.48;;;16.60;55.00;;;;;;4976171;28;20023;-67
2024/01/28 11:20:17;;;;;;;5.60;1.85;;;17.70;53.90;;;;;;4958620;28;20043;-68
2024/01/28 11:22:52;;;;;;;7.95;1.60;;;18.10;52.00;;;;;;4975951;28;20130;-67
2024/01/28 11:25:24;;;;;;;6.07;1.80;;;18.60;50.40;;;;;;4976011;28;20324;-67
2024/01/28 11:27:51;;;;;;;3.83;1.30;;;18.70;48.60;;;;;;4971543;28;20071;-67
2024/01/28 11:30:23;;;;;;;6.68;1.58;;;19.00;48.10;;;;;;4956668;29;20027;-72
2024/01/28 11:32:52;;;;;;;3.70;1.38;;;19.40;49.70;;;;;;4971548;28;20031;-67
2024/01/28 11:35:18;;;;;;;4.72;1.20;;;19.50;47.70;;;;;;4956727;29;20024;-67
2024/01/28 11:37:55;;;;;;;5.07;1.35;;;19.30;47.20;;;;;;4955330;29;20039;-67
2024/01/28 11:40:24;;;;;;;6.82;1.52;;;19.40;45.50;;;;;;4956865;29;20031;-67
2024/01/28 11:42:55;;;;;;;4.10;1.40;;;19.80;45.60;;;;;;4970998;28;20031;-67
2024/01/28 11:45:21;;;;;;;4.75;1.15;;;19.90;44.10;;;;;;4971338;28;20122;-67
2024/01/28 11:47:47;;;;;;;5.10;1.38;;;19.60;43.90;;;;;;4956417;29;20020;-67
2024/01/28 11:50:14;;;;;;;4.20;1.52;;;19.60;43.80;;;;;;4954553;28;20450;-67
2024/01/28 11:52:39;;;;;;;8.20;1.70;;;19.30;44.80;;;;;;4956369;28;20034;-67
2024/01/28 11:55:16;;;;;;;4.47;1.40;;;19.00;43.80;;;;;;4955071;29;20027;-65
2024/01/28 11:57:44;;;;;;;4.45;1.70;;;19.20;43.70;;;;;;4955606;29;20039;-66
2024/01/28 12:00:11;;;;;;;4.28;1.35;;;19.30;43.40;;;;;;4956292;29;20031;-66
2024/01/28 12:02:37;;;;;;;7.07;1.33;;;19.40;42.70;;;;;;4970927;28;20031;-67
2024/01/28 12:05:04;;;;;;;4.47;1.42;;;19.40;43.90;;;;;;4956533;29;20039;-68
2024/01/28 12:07:39;;;;;;;4.80;1.48;;;19.50;44.10;;;;;;4970880;28;20378;-67
2024/01/28 12:10:12;;;;;;;6.20;1.77;;;19.60;42.60;;;;;;4970955;28;20031;-68
2024/01/28 12:12:42;;;;;;;3.38;1.23;;;19.40;42.30;;;;;;4955831;28;20062;-68
2024/01/28 12:15:09;;;;;;;4.40;1.23;;;19.40;42.50;;;;;;4955856;29;20129;-68
2024/01/28 12:17:36;;;;;;;5.88;1.50;;;19.40;42.20;;;;;;4954747;29;20034;-67
2024/01/28 12:20:03;;;;;;;4.47;1.20;;;19.40;42.50;;;;;;4956092;29;20114;-68
2024/01/28 12:22:41;;;;;;;2.97;1.00;;;19.50;40.30;;;;;;4970187;28;20031;-68
2024/01/28 12:25:11;;;;;;;12.45;4.28;;;19.80;41.50;;;;;;4955898;29;20024;-68
2024/01/28 12:27:40;;;;;;;6.82;3.15;;;19.80;43.30;;;;;;4971812;28;20082;-68
2024/01/28 12:30:07;;;;;;;6.03;2.83;;;20.00;41.60;;;;;;4957798;28;20030;-68
2024/01/28 12:32:33;;;;;;;6.20;1.80;;;20.40;39.90;;;;;;4958181;28;20042;-68
2024/01/28 12:35:03;;;;;;;4.78;0.88;;;20.70;39.70;;;;;;4957841;28;20027;-67
2024/01/28 12:37:30;;;;;;;3.78;1.20;;;20.50;38.90;;;;;;4975197;28;20082;-68
2024/01/28 12:39:56;;;;;;;4.90;1.52;;;20.50;39.50;;;;;;4975126;28;20054;-68
2024/01/28 12:42:22;;;;;;;2.75;1.05;;;20.80;39.40;;;;;;4974700;28;20082;-68